Wallsburg, UT (84082)

6:49 PM MDT on July 28, 2015 (GMT -0600)
Heber | | Change Station
CLOSE
Current Station
Airport
Location: Heber,
Elevation: 5636 ft
Nearby Weather Stations

Elev 5636 ft 40.48 °N, 111.43 °W | Updated 14 minutes ago

Clear
Clear
79 °F
Feels Like 79 °F
N
6
Wind Variable Wind from WSW

Today
High -- | Low -- °F
--% Chance of Precip.
Yesterday
High -- | Low -- °F
Precip. -- in
6:19 AM 8:44 PM
Waxing Gibbous, 92% visible
Pressure 30.21 in
Visibility 10.0 miles
Clouds Clear
Dew Point 23 °F
Humidity 13%
Rainfall 0.00 in
Snow Depth Not available.
UV 2 out of 12
Pollen 5.00 out of 12
Air Quality Not available.
Flu Activity Not available.
METAR K36U 290035Z AUTO 25005KT 10SM CLR 26/M05 A3021 RMK AO2

More Conditions Fewer Conditions

Pressure 30.21 in
Visibility 10.0 miles
Clouds Clear
Dew Point 23 °F
Humidity 13%
Rainfall 0.00 in
Snow Depth Not available.
UV 2 out of 12
Pollen 5.00 out of 12
Air Quality Not available.
Flu Activity Not available.
METAR K36U 290035Z AUTO 25005KT 10SM CLR 26/M05 A3021 RMK AO2

More Conditions Fewer Conditions

10-Day Weather Forecast

×

Almanac

Astronomy

Jul. 28, 2015 Rise Set
Actual Time
Civil Twilight
Nautical Twilight
Astronomical Twilight
Moon
Length of Visible Light
Length of Day
Tomorrow will be .
, % of the Moon is Illuminated

Today's Extremes

State Highs State Lows

Community

WunderPhotos

Upload Photos

1,841,987 photos uploaded!

WunderBlogs® & News

Nearby

Air Quality

  Air Quality AQ Index Pollutant
Not available.

Snow Depth

Station Depth Elevation

Earthquake Activity

City Distance Mag. Time & Date
Minimum magnitude displayed is 2.5.

Coastal Water Temperatures

Place Temperature

Stations

Nearby Weather Stations

Station Location Temp. Windchill Dew Point Humidity Wind Precip. Elev Updated Type